sensor_id;sensor_type;location;lat;lon;timestamp;temperature;humidity
68977;SHT31;56029;52.568;13.588;2022-10-31T00:02:20;8.87;98.82
68977;SHT31;56029;52.568;13.588;2022-10-31T00:04:45;8.87;98.80
68977;SHT31;56029;52.568;13.588;2022-10-31T00:07:11;8.85;98.78
68977;SHT31;56029;52.568;13.588;2022-10-31T00:09:36;8.87;98.73
68977;SHT31;56029;52.568;13.588;2022-10-31T00:12:02;8.87;98.86
68977;SHT31;56029;52.568;13.588;2022-10-31T00:14:27;8.84;99.99
68977;SHT31;56029;52.568;13.588;2022-10-31T00:16:53;8.84;99.99
68977;SHT31;56029;52.568;13.588;2022-10-31T00:19:18;8.88;99.99
68977;SHT31;56029;52.568;13.588;2022-10-31T00:21:44;8.84;99.99
68977;SHT31;56029;52.568;13.588;2022-10-31T00:24:10;8.83;99.97
68977;SHT31;56029;52.568;13.588;2022-10-31T00:26:36;8.81;99.99
68977;SHT31;56029;52.568;13.588;2022-10-31T00:29:01;8.79;99.99
68977;SHT31;56029;52.568;13.588;2022-10-31T00:31:28;8.76;99.99
68977;SHT31;56029;52.568;13.588;2022-10-31T00:33:53;8.73;99.99
68977;SHT31;56029;52.568;13.588;2022-10-31T00:36:19;8.63;99.99
68977;SHT31;56029;52.568;13.588;2022-10-31T00:38:46;8.54;99.99
68977;SHT31;56029;52.568;13.588;2022-10-31T00:41:14;8.52;99.99
68977;SHT31;56029;52.568;13.588;2022-10-31T00:43:41;8.52;99.99
68977;SHT31;56029;52.568;13.588;2022-10-31T00:46:06;8.52;99.99
68977;SHT31;56029;52.568;13.588;2022-10-31T00:48:32;8.52;99.99
68977;SHT31;56029;52.568;13.588;2022-10-31T00:50:58;8.49;99.99
68977;SHT31;56029;52.568;13.588;2022-10-31T00:53:23;8.35;99.99
68977;SHT31;56029;52.568;13.588;2022-10-31T00:55:49;8.30;99.99
68977;SHT31;56029;52.568;13.588;2022-10-31T00:58:14;8.28;99.99
68977;SHT31;56029;52.568;13.588;2022-10-31T01:00:40;8.32;99.99
68977;SHT31;56029;52.568;13.588;2022-10-31T01:03:05;8.36;99.99
68977;SHT31;56029;52.568;13.588;2022-10-31T01:05:31;8.39;99.99
68977;SHT31;56029;52.568;13.588;2022-10-31T01:07:56;8.40;99.99
68977;SHT31;56029;52.568;13.588;2022-10-31T01:10:22;8.40;99.99
68977;SHT31;56029;52.568;13.588;2022-10-31T01:12:48;8.40;99.99
68977;SHT31;56029;52.568;13.588;2022-10-31T01:15:21;8.36;99.99
68977;SHT31;56029;52.568;13.588;2022-10-31T01:17:48;8.36;99.99
68977;SHT31;56029;52.568;13.588;2022-10-31T01:20:15;8.36;99.99
68977;SHT31;56029;52.568;13.588;2022-10-31T01:22:40;8.33;99.99
68977;SHT31;56029;52.568;13.588;2022-10-31T01:25:08;8.28;99.99
68977;SHT31;56029;52.568;13.588;2022-10-31T01:27:34;8.30;99.99
68977;SHT31;56029;52.568;13.588;2022-10-31T01:29:59;8.33;99.99
68977;SHT31;56029;52.568;13.588;2022-10-31T01:32:26;8.28;99.99
68977;SHT31;56029;52.568;13.588;2022-10-31T01:34:54;8.22;99.99
68977;SHT31;56029;52.568;13.588;2022-10-31T01:37:20;8.13;99.99
68977;SHT31;56029;52.568;13.588;2022-10-31T01:39:47;8.13;99.99
68977;SHT31;56029;52.568;13.588;2022-10-31T01:42:18;8.12;99.99
68977;SHT31;56029;52.568;13.588;2022-10-31T01:44:48;8.11;99.99
68977;SHT31;56029;52.568;13.588;2022-10-31T01:47:17;7.99;99.99
68977;SHT31;56029;52.568;13.588;2022-10-31T01:49:53;7.98;99.99
68977;SHT31;56029;52.568;13.588;2022-10-31T01:52:40;7.91;99.99
68977;SHT31;56029;52.568;13.588;2022-10-31T01:55:20;7.84;99.99
68977;SHT31;56029;52.568;13.588;2022-10-31T01:57:48;7.81;99.99
68977;SHT31;56029;52.568;13.588;2022-10-31T02:00:15;7.74;99.99
68977;SHT31;56029;52.568;13.588;2022-10-31T02:02:42;7.77;99.99
68977;SHT31;56029;52.568;13.588;2022-10-31T02:05:12;7.78;99.99
68977;SHT31;56029;52.568;13.588;2022-10-31T02:07:44;7.74;99.99
68977;SHT31;56029;52.568;13.588;2022-10-31T02:10:11;7.71;99.99
68977;SHT31;56029;52.568;13.588;2022-10-31T02:12:37;7.74;99.99
68977;SHT31;56029;52.568;13.588;2022-10-31T02:15:05;7.77;99.99
68977;SHT31;56029;52.568;13.588;2022-10-31T02:17:31;7.75;99.99
68977;SHT31;56029;52.568;13.588;2022-10-31T02:22:30;7.78;99.99
68977;SHT31;56029;52.568;13.588;2022-10-31T02:31:12;7.69;99.99
68977;SHT31;56029;52.568;13.588;2022-10-31T02:33:51;7.70;99.99
68977;SHT31;56029;52.568;13.588;2022-10-31T02:36:25;7.71;99.99
68977;SHT31;56029;52.568;13.588;2022-10-31T02:41:40;7.75;99.99
68977;SHT31;56029;52.568;13.588;2022-10-31T02:44:35;7.75;99.99
68977;SHT31;56029;52.568;13.588;2022-10-31T02:47:06;7.73;99.99
68977;SHT31;56029;52.568;13.588;2022-10-31T02:52:28;7.61;99.83
68977;SHT31;56029;52.568;13.588;2022-10-31T02:54:53;7.59;99.90
68977;SHT31;56029;52.568;13.588;2022-10-31T02:57:25;7.57;99.91
68977;SHT31;56029;52.568;13.588;2022-10-31T03:00:02;7.54;99.80
68977;SHT31;56029;52.568;13.588;2022-10-31T03:02:38;7.54;99.65
68977;SHT31;56029;52.568;13.588;2022-10-31T03:05:11;7.47;99.53
68977;SHT31;56029;52.568;13.588;2022-10-31T03:07:56;7.43;99.31
68977;SHT31;56029;52.568;13.588;2022-10-31T03:13:23;7.46;99.49
68977;SHT31;56029;52.568;13.588;2022-10-31T03:15:51;7.47;99.49
68977;SHT31;56029;52.568;13.588;2022-10-31T03:18:40;7.44;99.41
68977;SHT31;56029;52.568;13.588;2022-10-31T03:23:37;7.42;99.47
68977;SHT31;56029;52.568;13.588;2022-10-31T03:26:06;7.43;99.50
68977;SHT31;56029;52.568;13.588;2022-10-31T03:28:40;7.44;99.84
68977;SHT31;56029;52.568;13.588;2022-10-31T03:31:08;7.46;99.88
68977;SHT31;56029;52.568;13.588;2022-10-31T03:33:36;7.46;99.98
68977;SHT31;56029;52.568;13.588;2022-10-31T03:36:05;7.44;99.99
68977;SHT31;56029;52.568;13.588;2022-10-31T03:38:35;7.44;99.99
68977;SHT31;56029;52.568;13.588;2022-10-31T03:41:03;7.46;99.99
68977;SHT31;56029;52.568;13.588;2022-10-31T03:43:33;7.50;99.99
68977;SHT31;56029;52.568;13.588;2022-10-31T03:46:03;7.49;99.99
68977;SHT31;56029;52.568;13.588;2022-10-31T03:48:28;7.46;99.99
68977;SHT31;56029;52.568;13.588;2022-10-31T03:51:33;7.42;99.99
68977;SHT31;56029;52.568;13.588;2022-10-31T03:54:35;7.37;99.99
68977;SHT31;56029;52.568;13.588;2022-10-31T03:57:09;7.37;99.99
68977;SHT31;56029;52.568;13.588;2022-10-31T03:59:43;7.36;99.99
68977;SHT31;56029;52.568;13.588;2022-10-31T04:02:16;7.32;99.99
68977;SHT31;56029;52.568;13.588;2022-10-31T04:04:44;7.37;99.99
68977;SHT31;56029;52.568;13.588;2022-10-31T04:07:11;7.36;99.99
68977;SHT31;56029;52.568;13.588;2022-10-31T04:09:42;7.42;99.99
68977;SHT31;56029;52.568;13.588;2022-10-31T04:12:11;7.44;99.99
68977;SHT31;56029;52.568;13.588;2022-10-31T04:14:39;7.49;99.99
68977;SHT31;56029;52.568;13.588;2022-10-31T04:17:08;7.44;99.99
68977;SHT31;56029;52.568;13.588;2022-10-31T04:19:34;7.44;99.99
68977;SHT31;56029;52.568;13.588;2022-10-31T04:22:00;7.34;99.99
68977;SHT31;56029;52.568;13.588;2022-10-31T04:24:26;7.30;99.99
68977;SHT31;56029;52.568;13.588;2022-10-31T04:26:51;7.33;99.99
68977;SHT31;56029;52.568;13.588;2022-10-31T04:29:17;7.29;99.99
68977;SHT31;56029;52.568;13.588;2022-10-31T04:31:42;7.29;99.99
68977;SHT31;56029;52.568;13.588;2022-10-31T04:34:08;7.30;99.99
68977;SHT31;56029;52.568;13.588;2022-10-31T04:36:33;7.39;99.99
68977;SHT31;56029;52.568;13.588;2022-10-31T04:38:59;7.40;99.99
68977;SHT31;56029;52.568;13.588;2022-10-31T04:41:24;7.42;99.99
68977;SHT31;56029;52.568;13.588;2022-10-31T04:43:50;7.43;99.99
68977;SHT31;56029;52.568;13.588;2022-10-31T04:46:15;7.42;99.99
68977;SHT31;56029;52.568;13.588;2022-10-31T04:48:41;7.39;99.99
68977;SHT31;56029;52.568;13.588;2022-10-31T04:51:07;7.37;99.99
68977;SHT31;56029;52.568;13.588;2022-10-31T04:53:32;7.29;99.99
68977;SHT31;56029;52.568;13.588;2022-10-31T04:55:58;7.27;99.99
68977;SHT31;56029;52.568;13.588;2022-10-31T04:58:25;7.26;99.99
68977;SHT31;56029;52.568;13.588;2022-10-31T05:00:54;7.27;99.99
68977;SHT31;56029;52.568;13.588;2022-10-31T05:03:20;7.29;99.99
68977;SHT31;56029;52.568;13.588;2022-10-31T05:05:46;7.26;99.99
68977;SHT31;56029;52.568;13.588;2022-10-31T05:08:13;7.30;99.99
68977;SHT31;56029;52.568;13.588;2022-10-31T05:10:38;7.32;99.99
68977;SHT31;56029;52.568;13.588;2022-10-31T05:13:04;7.40;99.99
68977;SHT31;56029;52.568;13.588;2022-10-31T05:15:30;7.53;99.99
68977;SHT31;56029;52.568;13.588;2022-10-31T05:17:55;7.66;99.99
68977;SHT31;56029;52.568;13.588;2022-10-31T05:20:24;8.01;99.99
68977;SHT31;56029;52.568;13.588;2022-10-31T05:22:51;8.45;99.99
68977;SHT31;56029;52.568;13.588;2022-10-31T05:25:18;8.60;99.99
68977;SHT31;56029;52.568;13.588;2022-10-31T05:27:46;8.77;99.99
68977;SHT31;56029;52.568;13.588;2022-10-31T05:30:15;9.31;99.99
68977;SHT31;56029;52.568;13.588;2022-10-31T05:32:43;9.43;99.99
68977;SHT31;56029;52.568;13.588;2022-10-31T05:35:11;9.38;99.99
68977;SHT31;56029;52.568;13.588;2022-10-31T05:37:37;9.46;99.99
68977;SHT31;56029;52.568;13.588;2022-10-31T05:40:04;9.59;99.99
68977;SHT31;56029;52.568;13.588;2022-10-31T05:42:29;9.85;99.99
68977;SHT31;56029;52.568;13.588;2022-10-31T05:44:55;10.11;99.99
68977;SHT31;56029;52.568;13.588;2022-10-31T05:47:22;10.08;99.99
68977;SHT31;56029;52.568;13.588;2022-10-31T05:49:48;9.98;99.99
68977;SHT31;56029;52.568;13.588;2022-10-31T05:52:14;10.00;99.99
68977;SHT31;56029;52.568;13.588;2022-10-31T05:54:39;10.06;99.99
68977;SHT31;56029;52.568;13.588;2022-10-31T05:57:05;9.98;99.99
68977;SHT31;56029;52.568;13.588;2022-10-31T05:59:30;10.00;99.99
68977;SHT31;56029;52.568;13.588;2022-10-31T06:01:56;10.01;99.99
68977;SHT31;56029;52.568;13.588;2022-10-31T06:04:21;10.01;99.99
68977;SHT31;56029;52.568;13.588;2022-10-31T06:06:47;10.08;99.99
68977;SHT31;56029;52.568;13.588;2022-10-31T06:09:12;10.14;99.99
68977;SHT31;56029;52.568;13.588;2022-10-31T06:11:38;10.07;99.99
68977;SHT31;56029;52.568;13.588;2022-10-31T06:14:04;10.18;99.99
68977;SHT31;56029;52.568;13.588;2022-10-31T06:16:30;10.20;99.99
68977;SHT31;56029;52.568;13.588;2022-10-31T06:18:55;10.27;99.99
68977;SHT31;56029;52.568;13.588;2022-10-31T06:21:21;10.49;99.99
68977;SHT31;56029;52.568;13.588;2022-10-31T06:23:46;10.66;99.99
68977;SHT31;56029;52.568;13.588;2022-10-31T06:26:12;10.68;99.99
68977;SHT31;56029;52.568;13.588;2022-10-31T06:28:37;10.72;99.99
68977;SHT31;56029;52.568;13.588;2022-10-31T06:31:03;10.85;99.99
68977;SHT31;56029;52.568;13.588;2022-10-31T06:33:28;10.83;99.99
68977;SHT31;56029;52.568;13.588;2022-10-31T06:35:54;10.82;99.99
68977;SHT31;56029;52.568;13.588;2022-10-31T06:38:19;10.76;99.99
68977;SHT31;56029;52.568;13.588;2022-10-31T06:40:45;10.79;99.99
68977;SHT31;56029;52.568;13.588;2022-10-31T06:43:10;10.73;99.99
68977;SHT31;56029;52.568;13.588;2022-10-31T06:45:37;10.77;99.99
68977;SHT31;56029;52.568;13.588;2022-10-31T06:48:02;10.82;99.99
68977;SHT31;56029;52.568;13.588;2022-10-31T06:50:28;10.89;99.99
68977;SHT31;56029;52.568;13.588;2022-10-31T06:52:56;10.91;99.99
68977;SHT31;56029;52.568;13.588;2022-10-31T06:55:22;10.92;99.99
68977;SHT31;56029;52.568;13.588;2022-10-31T06:57:58;10.86;99.99
68977;SHT31;56029;52.568;13.588;2022-10-31T07:00:26;10.91;99.99
68977;SHT31;56029;52.568;13.588;2022-10-31T07:02:55;10.97;99.99
68977;SHT31;56029;52.568;13.588;2022-10-31T07:05:22;10.99;99.99
68977;SHT31;56029;52.568;13.588;2022-10-31T07:07:51;11.09;99.99
68977;SHT31;56029;52.568;13.588;2022-10-31T07:10:17;11.12;99.99
68977;SHT31;56029;52.568;13.588;2022-10-31T07:12:42;11.22;99.99
68977;SHT31;56029;52.568;13.588;2022-10-31T07:15:08;11.28;99.99
68977;SHT31;56029;52.568;13.588;2022-10-31T07:17:34;11.45;99.99
68977;SHT31;56029;52.568;13.588;2022-10-31T07:19:59;11.51;99.99
68977;SHT31;56029;52.568;13.588;2022-10-31T07:22:25;11.62;99.99
68977;SHT31;56029;52.568;13.588;2022-10-31T07:24:56;11.74;99.99
68977;SHT31;56029;52.568;13.588;2022-10-31T07:27:22;11.86;99.99
68977;SHT31;56029;52.568;13.588;2022-10-31T07:29:47;11.99;99.99
68977;SHT31;56029;52.568;13.588;2022-10-31T07:32:13;12.09;99.99
68977;SHT31;56029;52.568;13.588;2022-10-31T07:34:39;12.22;99.99
68977;SHT31;56029;52.568;13.588;2022-10-31T07:37:04;12.28;99.99
68977;SHT31;56029;52.568;13.588;2022-10-31T07:39:30;12.37;99.99
68977;SHT31;56029;52.568;13.588;2022-10-31T07:41:58;12.49;99.99
68977;SHT31;56029;52.568;13.588;2022-10-31T07:44:24;12.56;99.99
68977;SHT31;56029;52.568;13.588;2022-10-31T07:46:49;12.61;99.99
68977;SHT31;56029;52.568;13.588;2022-10-31T07:49:15;12.73;99.96
68977;SHT31;56029;52.568;13.588;2022-10-31T07:51:40;12.78;99.94
68977;SHT31;56029;52.568;13.588;2022-10-31T07:54:06;12.80;99.99
68977;SHT31;56029;52.568;13.588;2022-10-31T07:56:31;12.85;99.90
68977;SHT31;56029;52.568;13.588;2022-10-31T07:58:57;12.92;99.63
68977;SHT31;56029;52.568;13.588;2022-10-31T08:01:22;12.95;99.63
68977;SHT31;56029;52.568;13.588;2022-10-31T08:03:48;12.97;99.72
68977;SHT31;56029;52.568;13.588;2022-10-31T08:06:13;12.97;99.46
68977;SHT31;56029;52.568;13.588;2022-10-31T08:08:39;12.95;99.75
68977;SHT31;56029;52.568;13.588;2022-10-31T08:11:05;12.94;99.86
68977;SHT31;56029;52.568;13.588;2022-10-31T08:13:30;12.90;99.99
68977;SHT31;56029;52.568;13.588;2022-10-31T08:15:57;12.91;99.93
68977;SHT31;56029;52.568;13.588;2022-10-31T08:18:28;12.90;99.99
68977;SHT31;56029;52.568;13.588;2022-10-31T08:20:54;12.88;99.99
68977;SHT31;56029;52.568;13.588;2022-10-31T08:23:20;12.87;99.99
68977;SHT31;56029;52.568;13.588;2022-10-31T08:25:45;12.85;99.99
68977;SHT31;56029;52.568;13.588;2022-10-31T08:28:13;12.84;99.99
68977;SHT31;56029;52.568;13.588;2022-10-31T08:30:40;12.91;99.99
68977;SHT31;56029;52.568;13.588;2022-10-31T08:33:12;12.90;99.99
68977;SHT31;56029;52.568;13.588;2022-10-31T08:35:38;12.91;99.99
68977;SHT31;56029;52.568;13.588;2022-10-31T08:38:04;12.92;99.99
68977;SHT31;56029;52.568;13.588;2022-10-31T08:40:31;12.94;99.99
68977;SHT31;56029;52.568;13.588;2022-10-31T08:42:58;12.97;99.99
68977;SHT31;56029;52.568;13.588;2022-10-31T08:45:24;12.92;99.99
68977;SHT31;56029;52.568;13.588;2022-10-31T08:47:50;12.95;99.99
68977;SHT31;56029;52.568;13.588;2022-10-31T08:50:16;12.95;99.99
68977;SHT31;56029;52.568;13.588;2022-10-31T08:52:41;13.01;99.99
68977;SHT31;56029;52.568;13.588;2022-10-31T08:55:07;13.04;99.99
68977;SHT31;56029;52.568;13.588;2022-10-31T08:57:32;13.15;99.99
68977;SHT31;56029;52.568;13.588;2022-10-31T08:59:58;13.22;99.99
68977;SHT31;56029;52.568;13.588;2022-10-31T09:02:23;13.29;99.99
68977;SHT31;56029;52.568;13.588;2022-10-31T09:04:49;13.32;99.80
68977;SHT31;56029;52.568;13.588;2022-10-31T09:07:14;13.36;99.40
68977;SHT31;56029;52.568;13.588;2022-10-31T09:09:40;13.38;99.63
68977;SHT31;56029;52.568;13.588;2022-10-31T09:12:05;13.43;99.44
68977;SHT31;56029;52.568;13.588;2022-10-31T09:14:31;13.46;99.31
68977;SHT31;56029;52.568;13.588;2022-10-31T09:16:56;13.50;99.00
68977;SHT31;56029;52.568;13.588;2022-10-31T09:19:22;13.50;99.25
68977;SHT31;56029;52.568;13.588;2022-10-31T09:21:47;13.55;98.91
68977;SHT31;56029;52.568;13.588;2022-10-31T09:24:13;13.63;99.57
68977;SHT31;56029;52.568;13.588;2022-10-31T09:26:38;13.73;98.99
68977;SHT31;56029;52.568;13.588;2022-10-31T09:29:04;13.74;98.46
68977;SHT31;56029;52.568;13.588;2022-10-31T09:31:29;13.73;98.56
68977;SHT31;56029;52.568;13.588;2022-10-31T09:33:55;13.80;98.57
68977;SHT31;56029;52.568;13.588;2022-10-31T09:36:20;13.87;98.23
68977;SHT31;56029;52.568;13.588;2022-10-31T09:38:46;13.91;98.16
68977;SHT31;56029;52.568;13.588;2022-10-31T09:41:33;13.98;97.80
68977;SHT31;56029;52.568;13.588;2022-10-31T09:44:08;14.06;97.34
68977;SHT31;56029;52.568;13.588;2022-10-31T09:47:05;14.17;97.32
68977;SHT31;56029;52.568;13.588;2022-10-31T09:52:18;14.41;96.67
68977;SHT31;56029;52.568;13.588;2022-10-31T09:54:51;14.48;96.52
68977;SHT31;56029;52.568;13.588;2022-10-31T09:57:22;14.45;96.23
68977;SHT31;56029;52.568;13.588;2022-10-31T09:59:49;14.55;96.54
68977;SHT31;56029;52.568;13.588;2022-10-31T10:02:23;14.59;96.31
68977;SHT31;56029;52.568;13.588;2022-10-31T10:05:09;14.68;96.17
68977;SHT31;56029;52.568;13.588;2022-10-31T10:07:44;14.62;95.96
68977;SHT31;56029;52.568;13.588;2022-10-31T10:10:17;14.61;96.17
68977;SHT31;56029;52.568;13.588;2022-10-31T10:12:53;14.63;96.01
68977;SHT31;56029;52.568;13.588;2022-10-31T10:18:23;14.73;96.49
68977;SHT31;56029;52.568;13.588;2022-10-31T10:23:39;14.89;95.34
68977;SHT31;56029;52.568;13.588;2022-10-31T10:26:21;14.94;95.32
68977;SHT31;56029;52.568;13.588;2022-10-31T10:28:52;15.07;95.39
68977;SHT31;56029;52.568;13.588;2022-10-31T10:31:24;15.08;94.58
68977;SHT31;56029;52.568;13.588;2022-10-31T10:34:13;15.11;94.74
68977;SHT31;56029;52.568;13.588;2022-10-31T10:36:56;15.13;93.91
68977;SHT31;56029;52.568;13.588;2022-10-31T10:39:44;15.17;93.69
68977;SHT31;56029;52.568;13.588;2022-10-31T10:42:15;15.20;93.81
68977;SHT31;56029;52.568;13.588;2022-10-31T10:45:06;15.19;94.41
68977;SHT31;56029;52.568;13.588;2022-10-31T10:48:06;15.23;94.25
68977;SHT31;56029;52.568;13.588;2022-10-31T10:50:38;15.23;93.79
68977;SHT31;56029;52.568;13.588;2022-10-31T10:53:52;15.21;94.02
68977;SHT31;56029;52.568;13.588;2022-10-31T10:56:16;15.23;94.40
68977;SHT31;56029;52.568;13.588;2022-10-31T10:58:42;15.28;94.11
68977;SHT31;56029;52.568;13.588;2022-10-31T11:01:12;15.38;93.84
68977;SHT31;56029;52.568;13.588;2022-10-31T11:03:39;15.47;93.61
68977;SHT31;56029;52.568;13.588;2022-10-31T11:06:04;15.54;93.13
68977;SHT31;56029;52.568;13.588;2022-10-31T11:08:41;15.59;92.77
68977;SHT31;56029;52.568;13.588;2022-10-31T11:11:30;15.73;92.46
68977;SHT31;56029;52.568;13.588;2022-10-31T11:14:04;15.89;92.85
68977;SHT31;56029;52.568;13.588;2022-10-31T11:16:35;15.88;92.29
68977;SHT31;56029;52.568;13.588;2022-10-31T11:21:37;15.95;91.95
68977;SHT31;56029;52.568;13.588;2022-10-31T11:26:37;15.95;91.40
68977;SHT31;56029;52.568;13.588;2022-10-31T11:29:04;15.95;91.79
68977;SHT31;56029;52.568;13.588;2022-10-31T11:31:32;16.00;91.56
68977;SHT31;56029;52.568;13.588;2022-10-31T11:34:02;16.03;91.73
68977;SHT31;56029;52.568;13.588;2022-10-31T11:36:30;16.12;91.52
68977;SHT31;56029;52.568;13.588;2022-10-31T11:38:57;16.27;91.33
68977;SHT31;56029;52.568;13.588;2022-10-31T11:41:27;16.33;91.50
68977;SHT31;56029;52.568;13.588;2022-10-31T11:43:57;16.41;90.62
68977;SHT31;56029;52.568;13.588;2022-10-31T11:46:39;16.56;90.83
68977;SHT31;56029;52.568;13.588;2022-10-31T11:49:35;16.67;90.66
68977;SHT31;56029;52.568;13.588;2022-10-31T11:52:02;16.78;89.79
68977;SHT31;56029;52.568;13.588;2022-10-31T11:54:33;16.84;89.44
68977;SHT31;56029;52.568;13.588;2022-10-31T11:57:00;16.92;90.26
68977;SHT31;56029;52.568;13.588;2022-10-31T11:59:30;16.91;88.71
68977;SHT31;56029;52.568;13.588;2022-10-31T12:01:58;16.92;89.36
68977;SHT31;56029;52.568;13.588;2022-10-31T12:04:39;17.02;89.68
68977;SHT31;56029;52.568;13.588;2022-10-31T12:07:06;17.02;88.49
68977;SHT31;56029;52.568;13.588;2022-10-31T12:09:34;17.02;88.34
68977;SHT31;56029;52.568;13.588;2022-10-31T12:17:14;17.12;88.90
68977;SHT31;56029;52.568;13.588;2022-10-31T12:19:47;17.18;88.28
68977;SHT31;56029;52.568;13.588;2022-10-31T12:22:26;17.15;88.65
68977;SHT31;56029;52.568;13.588;2022-10-31T12:25:25;17.26;87.95
68977;SHT31;56029;52.568;13.588;2022-10-31T12:28:08;17.26;87.93
68977;SHT31;56029;52.568;13.588;2022-10-31T12:36:36;17.23;87.96
68977;SHT31;56029;52.568;13.588;2022-10-31T12:41:56;17.20;88.11
68977;SHT31;56029;52.568;13.588;2022-10-31T12:44:50;17.25;87.70
68977;SHT31;56029;52.568;13.588;2022-10-31T12:47:54;17.28;87.85
68977;SHT31;56029;52.568;13.588;2022-10-31T12:56:17;17.33;87.86
68977;SHT31;56029;52.568;13.588;2022-10-31T12:58:49;17.32;88.10
68977;SHT31;56029;52.568;13.588;2022-10-31T13:01:19;17.33;87.98
68977;SHT31;56029;52.568;13.588;2022-10-31T13:03:55;17.30;87.79
68977;SHT31;56029;52.568;13.588;2022-10-31T13:06:29;17.35;88.51
68977;SHT31;56029;52.568;13.588;2022-10-31T13:09:00;17.43;87.69
68977;SHT31;56029;52.568;13.588;2022-10-31T13:11:32;17.49;87.47
68977;SHT31;56029;52.568;13.588;2022-10-31T13:14:30;17.50;87.25
68977;SHT31;56029;52.568;13.588;2022-10-31T13:16:59;17.47;87.25
68977;SHT31;56029;52.568;13.588;2022-10-31T13:19:30;17.50;87.72
68977;SHT31;56029;52.568;13.588;2022-10-31T13:22:06;17.59;87.13
68977;SHT31;56029;52.568;13.588;2022-10-31T13:24:40;17.60;87.05
68977;SHT31;56029;52.568;13.588;2022-10-31T13:27:21;17.60;87.72
68977;SHT31;56029;52.568;13.588;2022-10-31T13:29:56;17.66;87.08
68977;SHT31;56029;52.568;13.588;2022-10-31T13:32:26;17.66;86.94
68977;SHT31;56029;52.568;13.588;2022-10-31T13:34:55;17.69;87.01
68977;SHT31;56029;52.568;13.588;2022-10-31T13:37:34;17.65;87.00
68977;SHT31;56029;52.568;13.588;2022-10-31T13:42:45;17.59;87.56
68977;SHT31;56029;52.568;13.588;2022-10-31T13:45:17;17.62;87.55
68977;SHT31;56029;52.568;13.588;2022-10-31T13:47:43;17.59;87.83
68977;SHT31;56029;52.568;13.588;2022-10-31T13:52:43;17.65;87.75
68977;SHT31;56029;52.568;13.588;2022-10-31T13:55:42;17.63;87.49
68977;SHT31;56029;52.568;13.588;2022-10-31T13:58:24;17.57;87.27
68977;SHT31;56029;52.568;13.588;2022-10-31T14:01:26;17.51;87.62
68977;SHT31;56029;52.568;13.588;2022-10-31T14:04:01;17.47;87.50
68977;SHT31;56029;52.568;13.588;2022-10-31T14:06:36;17.47;87.78
68977;SHT31;56029;52.568;13.588;2022-10-31T14:09:02;17.42;88.49
68977;SHT31;56029;52.568;13.588;2022-10-31T14:11:28;17.40;88.42
68977;SHT31;56029;52.568;13.588;2022-10-31T14:13:56;17.33;88.61
68977;SHT31;56029;52.568;13.588;2022-10-31T14:16:26;17.30;88.75
68977;SHT31;56029;52.568;13.588;2022-10-31T14:19:17;17.29;88.86
68977;SHT31;56029;52.568;13.588;2022-10-31T14:21:47;17.26;89.36
68977;SHT31;56029;52.568;13.588;2022-10-31T14:26:54;17.16;89.55
68977;SHT31;56029;52.568;13.588;2022-10-31T14:29:26;17.15;90.12
68977;SHT31;56029;52.568;13.588;2022-10-31T14:34:28;17.04;90.36
68977;SHT31;56029;52.568;13.588;2022-10-31T14:43:04;16.87;90.92
68977;SHT31;56029;52.568;13.588;2022-10-31T14:45:45;16.79;91.08
68977;SHT31;56029;52.568;13.588;2022-10-31T14:51:00;16.65;91.85
68977;SHT31;56029;52.568;13.588;2022-10-31T14:53:39;16.53;92.48
68977;SHT31;56029;52.568;13.588;2022-10-31T14:56:09;16.47;92.69
68977;SHT31;56029;52.568;13.588;2022-10-31T14:58:38;16.37;92.66
68977;SHT31;56029;52.568;13.588;2022-10-31T15:01:06;16.34;93.02
68977;SHT31;56029;52.568;13.588;2022-10-31T15:03:44;16.30;93.01
68977;SHT31;56029;52.568;13.588;2022-10-31T15:06:15;16.21;93.50
68977;SHT31;56029;52.568;13.588;2022-10-31T15:08:52;16.13;93.58
68977;SHT31;56029;52.568;13.588;2022-10-31T15:11:23;16.06;93.99
68977;SHT31;56029;52.568;13.588;2022-10-31T15:13:55;15.95;94.37
68977;SHT31;56029;52.568;13.588;2022-10-31T15:16:31;15.86;94.38
68977;SHT31;56029;52.568;13.588;2022-10-31T15:19:06;15.77;95.08
68977;SHT31;56029;52.568;13.588;2022-10-31T15:21:33;15.68;95.63
68977;SHT31;56029;52.568;13.588;2022-10-31T15:24:02;15.68;95.69
68977;SHT31;56029;52.568;13.588;2022-10-31T15:26:39;15.54;96.26
68977;SHT31;56029;52.568;13.588;2022-10-31T15:29:23;15.37;96.71
68977;SHT31;56029;52.568;13.588;2022-10-31T15:34:44;15.07;97.74
68977;SHT31;56029;52.568;13.588;2022-10-31T15:37:14;14.99;98.25
68977;SHT31;56029;52.568;13.588;2022-10-31T15:39:41;14.89;98.56
68977;SHT31;56029;52.568;13.588;2022-10-31T15:42:18;14.84;98.75
68977;SHT31;56029;52.568;13.588;2022-10-31T15:44:48;14.80;99.04
68977;SHT31;56029;52.568;13.588;2022-10-31T15:47:19;14.68;99.21
68977;SHT31;56029;52.568;13.588;2022-10-31T15:49:52;14.65;99.39
68977;SHT31;56029;52.568;13.588;2022-10-31T15:52:29;14.61;99.52
68977;SHT31;56029;52.568;13.588;2022-10-31T15:57:45;14.45;99.92
68977;SHT31;56029;52.568;13.588;2022-10-31T16:02:47;14.31;99.99
68977;SHT31;56029;52.568;13.588;2022-10-31T16:05:18;14.22;99.99
68977;SHT31;56029;52.568;13.588;2022-10-31T16:07:51;14.18;99.99
68977;SHT31;56029;52.568;13.588;2022-10-31T16:10:24;14.14;99.99
68977;SHT31;56029;52.568;13.588;2022-10-31T16:12:51;14.11;99.99
68977;SHT31;56029;52.568;13.588;2022-10-31T16:15:19;14.04;99.99
68977;SHT31;56029;52.568;13.588;2022-10-31T16:17:48;13.97;99.99
68977;SHT31;56029;52.568;13.588;2022-10-31T16:20:27;13.98;99.99
68977;SHT31;56029;52.568;13.588;2022-10-31T16:22:54;14.00;99.99
68977;SHT31;56029;52.568;13.588;2022-10-31T16:25:27;13.98;99.99
68977;SHT31;56029;52.568;13.588;2022-10-31T16:28:00;13.91;99.99
68977;SHT31;56029;52.568;13.588;2022-10-31T16:30:39;13.93;99.99
68977;SHT31;56029;52.568;13.588;2022-10-31T16:33:20;13.87;99.99
68977;SHT31;56029;52.568;13.588;2022-10-31T16:35:47;13.84;99.99
68977;SHT31;56029;52.568;13.588;2022-10-31T16:38:13;13.83;99.99
68977;SHT31;56029;52.568;13.588;2022-10-31T16:40:39;13.81;99.99
68977;SHT31;56029;52.568;13.588;2022-10-31T16:43:09;13.78;99.99
68977;SHT31;56029;52.568;13.588;2022-10-31T16:45:36;13.73;99.99
68977;SHT31;56029;52.568;13.588;2022-10-31T16:48:09;13.67;99.99
68977;SHT31;56029;52.568;13.588;2022-10-31T16:50:37;13.67;99.99
68977;SHT31;56029;52.568;13.588;2022-10-31T16:53:02;13.57;99.99
68977;SHT31;56029;52.568;13.588;2022-10-31T16:55:28;13.52;99.99
68977;SHT31;56029;52.568;13.588;2022-10-31T16:57:55;13.45;99.99
68977;SHT31;56029;52.568;13.588;2022-10-31T17:00:26;13.38;99.99